Time;durP1;ratioP1;P1;durP2;ratioP2;P2;SDS_P1;SDS_P2;PMS_P1;PMS_P2;Temp;Humidity;BMP_temperature;BMP_pressure;BME280_temperature;BME280_humidity;BME280_pressure;Samples;Min_cycle;Max_cycle;Signal;HPM_P1;HPM_P2
2019/04/04 07:55:41;;;;;;;35.6;25.9;;;;;;;8.83;66.08496;939.8428;;;;
2019/04/04 07:58:36;;;;;;;37.1;26.5;;;;;;;8.75;67.5459;940.055;;;;
2019/04/04 08:01:04;;;;;;;32.8;25.9;;;;;;;8.85;66.92969;939.9899;;;;
2019/04/04 08:03:29;;;;;;;30.5;25.7;;;;;;;8.97;65.40234;939.998;;;;
2019/04/04 08:05:54;;;;;;;31.2;25.5;;;;;;;9.1;64.33887;940.1277;;;;
2019/04/04 08:10:41;;;;;;;32;26.1;;;;;;;8.97;65.99219;940.1716;;;;
2019/04/04 08:13:06;;;;;;;33.8;26.2;;;;;;;9.16;64.64844;940.1914;;;;
2019/04/04 08:15:31;;;;;;;70.3;52.8;;;;;;;9.33;64.40723;940.2058;;;;
2019/04/04 08:17:56;;;;;;;39.8;31.1;;;;;;;9.21;63.65137;940.2783;;;;
2019/04/04 08:20:21;;;;;;;32.7;25.3;;;;;;;9.36;63.8584;940.1667;;;;
2019/04/04 08:22:46;;;;;;;33.4;26.1;;;;;;;9.31;63.52734;940.2678;;;;
2019/04/04 08:25:12;;;;;;;35.1;27.2;;;;;;;9.23;63.86133;940.3566;;;;
2019/04/04 08:27:39;;;;;;;31.8;25.5;;;;;;;9.21;64.83984;940.4481;;;;
2019/04/04 08:30:04;;;;;;;32.3;25.3;;;;;;;9.23;63.94238;940.4459;;;;
2019/04/04 08:32:30;;;;;;;29.8;24.6;;;;;;;9.42;63.86621;940.3074;;;;
2019/04/04 08:34:55;;;;;;;31.6;25.7;;;;;;;9.51;64.13477;940.4562;;;;
2019/04/04 08:37:21;;;;;;;33.6;26.2;;;;;;;9.66;63.15137;940.3882;;;;
2019/04/04 08:39:46;;;;;;;29.6;24.9;;;;;;;9.9;62.25098;940.3911;;;;
2019/04/04 08:42:15;;;;;;;32.4;25.9;;;;;;;10.02;61.01953;940.446;;;;
2019/04/04 08:44:42;;;;;;;32.9;26.4;;;;;;;10.17;60.37207;940.6113;;;;
2019/04/04 08:47:08;;;;;;;35.4;25.2;;;;;;;10.25;60.14063;940.6083;;;;
2019/04/04 08:49:41;;;;;;;33.8;27.2;;;;;;;10.21;60.03027;940.5539;;;;
2019/04/04 08:52:06;;;;;;;32.3;26.1;;;;;;;10.17;60.07129;940.6997;;;;
2019/04/04 08:54:31;;;;;;;35.1;26.6;;;;;;;10.06;59.5127;940.7853;;;;
2019/04/04 08:56:56;;;;;;;34.7;27;;;;;;;10.05;59.75391;940.8197;;;;
2019/04/04 08:59:21;;;;;;;36.1;27.4;;;;;;;9.97;60.27539;940.8909;;;;
2019/04/04 09:01:58;;;;;;;34;26.2;;;;;;;9.91;60.55469;940.9177;;;;
2019/04/04 09:04:23;;;;;;;34.4;27.5;;;;;;;9.82;60.63379;940.9091;;;;
2019/04/04 09:06:57;;;;;;;34.3;26.7;;;;;;;9.7;60.89551;940.96;;;;
2019/04/04 09:09:22;;;;;;;34.5;25.6;;;;;;;9.75;60.9707;940.988;;;;
2019/04/04 09:11:48;;;;;;;33.3;26.3;;;;;;;9.76;60.52148;940.9947;;;;
2019/04/04 09:14:24;;;;;;;37.2;27.1;;;;;;;9.76;60.66113;941.0919;;;;
2019/04/04 09:16:48;;;;;;;34.5;26.4;;;;;;;9.72;60.9209;941.0728;;;;
2019/04/04 09:19:13;;;;;;;34.5;26.4;;;;;;;9.83;60.72949;941.1252;;;;
2019/04/04 09:21:43;;;;;;;33.3;26.2;;;;;;;9.91;60.0127;941.1428;;;;
2019/04/04 09:24:10;;;;;;;34.2;26.3;;;;;;;9.87;60.4209;941.1581;;;;
2019/04/04 09:26:35;;;;;;;33.6;26.4;;;;;;;9.79;60.61914;941.1987;;;;
2019/04/04 09:29:01;;;;;;;35.2;25.8;;;;;;;9.86;60.43262;941.1119;;;;
2019/04/04 09:31:26;;;;;;;34.9;26.1;;;;;;;9.87;59.99512;941.1953;;;;
2019/04/04 09:33:51;;;;;;;36.4;26.6;;;;;;;9.8;60.5752;941.1031;;;;
2019/04/04 09:36:16;;;;;;;35;26.9;;;;;;;9.9;60.91211;941.2037;;;;
2019/04/04 09:38:41;;;;;;;35.7;28.1;;;;;;;9.84;60.5459;941.183;;;;
2019/04/04 09:41:06;;;;;;;35.4;27.6;;;;;;;9.89;60.67969;941.0605;;;;
2019/04/04 09:43:31;;;;;;;35.9;27.5;;;;;;;10.09;61.63184;941.0994;;;;
2019/04/04 09:45:57;;;;;;;36;26.6;;;;;;;10.4;59.33984;941.0804;;;;
2019/04/04 09:48:22;;;;;;;34.9;26.8;;;;;;;10.55;59.03613;941.2078;;;;
2019/04/04 09:50:47;;;;;;;37.8;27.8;;;;;;;10.66;58.43848;941.2037;;;;
2019/04/04 09:53:12;;;;;;;35.4;27.6;;;;;;;10.66;57.76758;941.2587;;;;
2019/04/04 09:55:37;;;;;;;36.1;27.2;;;;;;;10.68;57.45703;941.2438;;;;
2019/04/04 09:58:02;;;;;;;34.7;27.1;;;;;;;10.75;56.72656;941.2207;;;;
2019/04/04 10:00:27;;;;;;;36.4;27.1;;;;;;;10.77;58.08301;941.1061;;;;
2019/04/04 10:02:53;;;;;;;34.4;26.7;;;;;;;10.91;57.46484;941.0947;;;;
2019/04/04 10:05:19;;;;;;;36.5;27.1;;;;;;;11;56.9209;941.0848;;;;
2019/04/04 10:07:44;;;;;;;35.2;28.1;;;;;;;10.96;56.19727;941.1047;;;;
2019/04/04 10:10:09;;;;;;;35.2;27.3;;;;;;;10.99;56.36328;941.0615;;;;
2019/04/04 10:12:35;;;;;;;36.8;28.2;;;;;;;10.97;55.71191;941.0637;;;;
2019/04/04 10:15:17;;;;;;;34.1;26.4;;;;;;;11.14;56.37207;941.0427;;;;
2019/04/04 10:17:42;;;;;;;32.9;26.2;;;;;;;11.36;55.25391;941.1926;;;;
2019/04/04 10:20:07;;;;;;;32.3;24.7;;;;;;;11.49;53.13574;941.3318;;;;
2019/04/04 10:22:32;;;;;;;32.9;25.1;;;;;;;11.43;53.42969;941.3792;;;;
2019/04/04 10:24:57;;;;;;;31.6;25;;;;;;;11.47;54.41992;941.3095;;;;
2019/04/04 10:27:22;;;;;;;33.9;25.6;;;;;;;11.37;53.89746;941.3284;;;;
2019/04/04 10:29:48;;;;;;;32.1;25.3;;;;;;;11.45;53.33984;941.4528;;;;
2019/04/04 10:32:13;;;;;;;32;24.3;;;;;;;11.33;54.85547;941.5006;;;;
2019/04/04 10:34:38;;;;;;;32.5;25.2;;;;;;;11.41;53.98438;941.5188;;;;
2019/04/04 10:37:04;;;;;;;34.3;26;;;;;;;11.35;54.55566;941.4509;;;;
2019/04/04 10:39:33;;;;;;;32.7;25;;;;;;;11.34;54.24219;941.5339;;;;
2019/04/04 10:41:58;;;;;;;33.8;25.2;;;;;;;11.41;54.1582;941.5226;;;;
2019/04/04 10:44:23;;;;;;;30.9;24.9;;;;;;;11.5;54.29688;941.4587;;;;
2019/04/04 10:46:48;;;;;;;31.9;25.5;;;;;;;11.46;53.28223;941.3708;;;;
2019/04/04 10:49:13;;;;;;;32.5;24.7;;;;;;;11.61;53.33691;941.3981;;;;
2019/04/04 10:51:38;;;;;;;32.2;25.7;;;;;;;11.77;53.49512;941.4266;;;;
2019/04/04 10:54:05;;;;;;;31.8;25.2;;;;;;;12;54.46387;941.4174;;;;
2019/04/04 10:56:31;;;;;;;29.1;22.9;;;;;;;12.45;50.62695;941.3599;;;;
2019/04/04 10:58:58;;;;;;;28.8;24.1;;;;;;;12.63;49.98633;941.2595;;;;
2019/04/04 11:01:23;;;;;;;28.9;22.5;;;;;;;12.78;49.06152;941.1716;;;;
2019/04/04 11:03:49;;;;;;;29.5;23.3;;;;;;;12.67;48.76953;941.0867;;;;
2019/04/04 11:06:14;;;;;;;30;23.6;;;;;;;12.62;50.69336;941.1117;;;;
2019/04/04 11:08:40;;;;;;;28.6;23.1;;;;;;;12.42;49.54395;941.0952;;;;
2019/04/04 11:11:05;;;;;;;30.6;23.7;;;;;;;12.55;50.27832;941.0287;;;;
2019/04/04 11:13:30;;;;;;;30.1;23.2;;;;;;;12.75;48.62793;941.0005;;;;
2019/04/04 11:15:55;;;;;;;29.6;23.4;;;;;;;13.06;47.90625;940.9781;;;;
2019/04/04 11:18:23;;;;;;;27.8;22.3;;;;;;;13.5;47.18555;941.0238;;;;
2019/04/04 11:20:48;;;;;;;29.4;23.2;;;;;;;13.74;46.05859;940.9077;;;;
2019/04/04 11:23:21;;;;;;;29;22.8;;;;;;;14.14;46.8584;940.8477;;;;
2019/04/04 11:25:50;;;;;;;28.6;21.5;;;;;;;14.46;44.69824;940.9115;;;;
2019/04/04 11:28:15;;;;;;;28.9;22.1;;;;;;;14.71;43.47363;940.8742;;;;
2019/04/04 11:30:41;;;;;;;28.4;23;;;;;;;14.97;42.59961;940.8108;;;;
2019/04/04 11:33:06;;;;;;;29.5;23.3;;;;;;;15.24;42.3916;940.9028;;;;
2019/04/04 11:35:40;;;;;;;26.3;22.2;;;;;;;15.55;42.62109;940.9155;;;;
2019/04/04 11:38:08;;;;;;;30.4;22.3;;;;;;;15.75;41.48145;940.9503;;;;
2019/04/04 11:40:33;;;;;;;27.7;22.8;;;;;;;16.2;40.27051;941.012;;;;
2019/04/04 11:43:01;;;;;;;25.5;21.2;;;;;;;16.38;39.50098;940.9551;;;;
2019/04/04 11:45:26;;;;;;;25.7;20.9;;;;;;;16.48;38.85254;940.8606;;;;
2019/04/04 11:47:52;;;;;;;27;21.7;;;;;;;16.42;40.6543;940.9045;;;;
2019/04/04 11:50:17;;;;;;;23.9;20;;;;;;;16.66;38.07129;940.7944;;;;
2019/04/04 11:52:42;;;;;;;24.4;21.5;;;;;;;16.74;38.94727;940.8663;;;;
2019/04/04 11:55:07;;;;;;;26;22;;;;;;;17;37.56055;940.9339;;;;
2019/04/04 11:57:32;;;;;;;26.7;23;;;;;;;17.16;37.31641;940.9746;;;;
2019/04/04 11:59:57;;;;;;;25.3;21.7;;;;;;;17.52;37.81738;941.1006;;;;
2019/04/04 12:02:23;;;;;;;24.6;20.8;;;;;;;17.8;36.8877;941.1779;;;;
2019/04/04 12:04:48;;;;;;;25.3;20.9;;;;;;;17.8;36.79395;941.0912;;;;
2019/04/04 12:07:13;;;;;;;25;21.8;;;;;;;17.91;35.89746;941.1537;;;;
2019/04/04 12:09:38;;;;;;;24.3;21.6;;;;;;;17.81;36.17188;941.2399;;;;
2019/04/04 12:12:03;;;;;;;25.2;21;;;;;;;17.82;36.57227;941.3033;;;;
2019/04/04 12:14:29;;;;;;;24.7;20.7;;;;;;;17.94;36.18164;941.252;;;;
2019/04/04 12:16:54;;;;;;;23.3;20.2;;;;;;;17.67;36.58398;941.3287;;;;
2019/04/04 12:19:19;;;;;;;22.5;19.6;;;;;;;17.74;37.23633;941.2871;;;;
2019/04/04 12:21:45;;;;;;;23.1;19.8;;;;;;;17.91;36.10938;941.287;;;;
2019/04/04 12:24:10;;;;;;;23.5;20.2;;;;;;;18.04;36.21387;941.264;;;;
2019/04/04 12:26:35;;;;;;;22.8;19.2;;;;;;;18.16;35.41211;941.3369;;;;
2019/04/04 12:29:00;;;;;;;22.4;19.2;;;;;;;18.16;35.88281;941.2773;;;;
2019/04/04 12:31:25;;;;;;;22.4;19.7;;;;;;;17.97;35.69043;941.3761;;;;
2019/04/04 12:33:50;;;;;;;21.9;19;;;;;;;18.15;36.24707;941.46;;;;
2019/04/04 12:36:15;;;;;;;22;18;;;;;;;18.33;36.20215;941.5312;;;;
2019/04/04 12:38:41;;;;;;;22;19.6;;;;;;;17.95;35.81836;941.5392;;;;
2019/04/04 12:41:06;;;;;;;21.3;17;;;;;;;17.45;38.41113;941.4799;;;;
2019/04/04 12:43:31;;;;;;;21.2;17.9;;;;;;;17.36;41.43457;941.4791;;;;
2019/04/04 12:45:56;;;;;;;22.3;19.6;;;;;;;17.15;37.49219;941.4852;;;;
2019/04/04 12:48:21;;;;;;;21.7;18.6;;;;;;;17.1;37.80469;941.4763;;;;
2019/04/04 12:50:46;;;;;;;25.8;18.9;;;;;;;16.68;38.56641;941.6314;;;;
2019/04/04 12:53:12;;;;;;;21.7;17.9;;;;;;;16.46;39.74316;941.8097;;;;
2019/04/04 12:55:37;;;;;;;23.8;18.5;;;;;;;16.33;40.90332;941.802;;;;
2019/04/04 12:58:02;;;;;;;24.4;18.3;;;;;;;15.96;41.06836;941.9554;;;;
2019/04/04 13:00:27;;;;;;;22.2;18.3;;;;;;;15.5;42.61621;941.909;;;;
2019/04/04 13:02:52;;;;;;;21.9;18;;;;;;;15.43;43.01953;941.936;;;;
2019/04/04 13:05:22;;;;;;;22.9;18.4;;;;;;;14.92;44.25488;942.02;;;;
2019/04/04 13:07:47;;;;;;;21.6;17.3;;;;;;;14.77;44.92773;942.1275;;;;
2019/04/04 13:10:13;;;;;;;23.1;17.8;;;;;;;14.6;45.48242;942.1547;;;;
2019/04/04 13:12:38;;;;;;;23.2;18;;;;;;;14.78;45.44336;942.1892;;;;
2019/04/04 13:15:03;;;;;;;22.2;17.7;;;;;;;14.65;45.37207;942.1884;;;;
2019/04/04 13:17:28;;;;;;;21.3;16.7;;;;;;;14.24;45.94824;942.2766;;;;
2019/04/04 13:19:53;;;;;;;21.6;15.7;;;;;;;13.95;47.11914;942.2369;;;;
2019/04/04 13:22:18;;;;;;;21.5;16.7;;;;;;;13.94;46.92969;942.3639;;;;
2019/04/04 13:24:43;;;;;;;23.2;18.1;;;;;;;13.9;46.87988;942.3403;;;;
2019/04/04 13:27:08;;;;;;;21.9;16.4;;;;;;;13.74;46.58203;942.4556;;;;
2019/04/04 13:29:33;;;;;;;19.2;15.4;;;;;;;13.06;48.87207;942.6387;;;;
2019/04/04 13:32:01;;;;;;;20.2;16.1;;;;;;;12.62;48.97266;942.6774;;;;
2019/04/04 13:34:23;;;;;;;18.3;15.1;;;;;;;12.4;49.45996;942.7484;;;;
2019/04/04 13:36:49;;;;;;;23;17.8;;;;;;;12.27;50.47949;942.8452;;;;
2019/04/04 13:39:14;;;;;;;19.1;14.1;;;;;;;12.1;50.90137;942.8924;;;;
2019/04/04 13:41:40;;;;;;;17.8;13.5;;;;;;;11.91;51.33105;942.8964;;;;
2019/04/04 13:44:05;;;;;;;17.4;13.4;;;;;;;11.91;51.41211;942.9131;;;;
2019/04/04 13:46:30;;;;;;;15.9;12.3;;;;;;;11.81;51.80664;942.9023;;;;
2019/04/04 13:48:55;;;;;;;15.2;11.8;;;;;;;11.6;52.82422;942.9417;;;;
2019/04/04 13:51:21;;;;;;;15.4;12.4;;;;;;;11.58;53.05469;942.9027;;;;
2019/04/04 13:53:46;;;;;;;16.8;12;;;;;;;11.38;53.64453;942.9105;;;;
2019/04/04 13:56:11;;;;;;;15.3;11.6;;;;;;;11.25;54.39355;942.9207;;;;
2019/04/04 13:58:37;;;;;;;16.1;11.7;;;;;;;11.16;53.84766;942.9097;;;;
2019/04/04 14:01:02;;;;;;;14.4;11.4;;;;;;;11.11;53.92285;942.9892;;;;
2019/04/04 14:03:27;;;;;;;16.3;11.4;;;;;;;11.13;53.83301;943.0244;;;;
2019/04/04 14:05:53;;;;;;;14.8;12.1;;;;;;;11.1;54.0498;943.1439;;;;
2019/04/04 14:08:18;;;;;;;17.4;13.2;;;;;;;11.21;53.92383;943.2986;;;;
2019/04/04 14:12:56;;;;;;;17.5;13.1;;;;;;;11.29;53.8877;943.522;;;;
2019/04/04 14:15:21;;;;;;;13.7;11.4;;;;;;;11.14;53.47559;943.5009;;;;
2019/04/04 14:17:46;;;;;;;13.7;10.1;;;;;;;11.03;53.04492;943.483;;;;
2019/04/04 14:20:11;;;;;;;12.2;10.5;;;;;;;11.06;53.24512;943.4659;;;;
2019/04/04 14:22:36;;;;;;;12.9;10.6;;;;;;;11.1;53.7832;943.4178;;;;
2019/04/04 14:25:18;;;;;;;11.6;9.8;;;;;;;11.11;53.05371;943.4078;;;;
2019/04/04 14:27:43;;;;;;;12;10.1;;;;;;;10.98;53.10742;943.4434;;;;
2019/04/04 14:30:08;;;;;;;12.2;9.9;;;;;;;10.73;53.74902;943.4836;;;;
2019/04/04 14:32:33;;;;;;;12.4;10.5;;;;;;;10.64;54.38477;943.4419;;;;
2019/04/04 14:34:58;;;;;;;14.1;10.5;;;;;;;10.53;54.22168;943.4355;;;;
2019/04/04 14:37:23;;;;;;;15.2;11.4;;;;;;;10.41;55.67578;943.5168;;;;
2019/04/04 14:39:49;;;;;;;16.5;12.3;;;;;;;10.52;55.71289;943.5055;;;;
2019/04/04 14:42:14;;;;;;;13.7;10.6;;;;;;;10.59;54.62207;943.5893;;;;
2019/04/04 14:44:42;;;;;;;15.2;11.6;;;;;;;10.56;54.7002;943.5591;;;;
2019/04/04 14:47:04;;;;;;;15.2;11.6;;;;;;;10.59;54.02148;943.5292;;;;
2019/04/04 14:49:29;;;;;;;13.7;11;;;;;;;10.71;54.19727;943.5806;;;;
2019/04/04 14:51:54;;;;;;;16.4;11.4;;;;;;;10.61;54.56738;943.531;;;;
2019/04/04 14:54:20;;;;;;;16.3;11.2;;;;;;;10.56;54.85059;943.5975;;;;
2019/04/04 14:56:45;;;;;;;15;10.6;;;;;;;10.56;53.99414;943.5719;;;;
2019/04/04 14:59:10;;;;;;;14.2;11;;;;;;;10.48;54.2041;943.588;;;;
2019/04/04 15:01:35;;;;;;;14.5;11;;;;;;;10.46;54.74512;943.7397;;;;
2019/04/04 15:04:00;;;;;;;20.1;15.4;;;;;;;10.34;55.58496;943.7737;;;;
2019/04/04 15:06:27;;;;;;;14.6;11.3;;;;;;;10.23;56.0791;943.7861;;;;
2019/04/04 15:08:51;;;;;;;14.8;10.9;;;;;;;10.24;55.85059;943.7712;;;;
2019/04/04 15:11:17;;;;;;;13.8;10.5;;;;;;;10.25;56.39355;943.7751;;;;
2019/04/04 15:13:41;;;;;;;12.7;9.9;;;;;;;10.38;56.00684;943.7606;;;;
2019/04/04 15:16:06;;;;;;;13.6;10.4;;;;;;;10.39;55.11719;943.8616;;;;
2019/04/04 15:18:32;;;;;;;12.9;10;;;;;;;10.29;55.43945;943.9434;;;;
2019/04/04 15:21:03;;;;;;;11.8;9.6;;;;;;;10.2;55.44043;943.8709;;;;
2019/04/04 15:23:27;;;;;;;11.1;9.6;;;;;;;10.06;55.74609;943.9116;;;;
2019/04/04 15:25:52;;;;;;;10.6;8.2;;;;;;;10.23;56.35645;943.8667;;;;
2019/04/04 15:28:17;;;;;;;13.2;9.1;;;;;;;10.26;55.35547;943.8279;;;;
2019/04/04 15:30:42;;;;;;;10.2;6.8;;;;;;;10.85;61.23047;943.8884;;;;
2019/04/04 15:33:07;;;;;;;13.3;9.1;;;;;;;11.07;52.74902;943.8016;;;;
2019/04/04 15:35:32;;;;;;;10.9;8.5;;;;;;;11.1;53.05371;943.7378;;;;
2019/04/04 15:37:59;;;;;;;11.2;8.8;;;;;;;10.89;53.38574;943.7639;;;;
2019/04/04 15:40:23;;;;;;;11.3;8.7;;;;;;;10.78;53.70898;943.7831;;;;
2019/04/04 15:42:49;;;;;;;11.4;8.8;;;;;;;10.68;53.30273;943.8998;;;;
2019/04/04 15:45:14;;;;;;;12.4;8.8;;;;;;;10.51;53.88477;943.9326;;;;
2019/04/04 15:47:39;;;;;;;10.8;8.5;;;;;;;10.43;54.07031;943.9702;;;;
2019/04/04 15:50:06;;;;;;;10.9;8.4;;;;;;;10.35;54.1416;943.8928;;;;
2019/04/04 15:52:35;;;;;;;26.8;19.1;;;;;;;10.26;55.72559;944.0581;;;;
2019/04/04 15:55:00;;;;;;;39.6;30.4;;;;;;;10.25;55.21582;944.1792;;;;
2019/04/04 15:57:26;;;;;;;11.1;9;;;;;;;10.3;55.08301;944.2659;;;;
2019/04/04 15:59:51;;;;;;;10.5;8.2;;;;;;;10.26;55.06641;944.4289;;;;
2019/04/04 16:02:16;;;;;;;10.7;9.1;;;;;;;10.22;56.26465;944.5198;;;;
2019/04/04 16:04:41;;;;;;;11.5;9.9;;;;;;;10.13;56.10156;944.5068;;;;
2019/04/04 16:07:08;;;;;;;10.9;9.4;;;;;;;10.18;55.90039;944.4916;;;;
2019/04/04 16:09:31;;;;;;;11.9;10.1;;;;;;;10.02;55.47461;944.3862;;;;
2019/04/04 16:11:57;;;;;;;12.3;9.9;;;;;;;9.92;56.31738;944.327;;;;
2019/04/04 16:14:21;;;;;;;12.3;10;;;;;;;9.89;56.20898;944.3364;;;;
2019/04/04 16:16:46;;;;;;;10.1;8.7;;;;;;;9.59;56.42383;944.2803;;;;
2019/04/04 16:19:12;;;;;;;10.3;9;;;;;;;9.69;56.50586;944.2872;;;;
2019/04/04 16:21:37;;;;;;;10.9;9;;;;;;;9.71;56.75195;944.2841;;;;
2019/04/04 16:24:02;;;;;;;10.8;9;;;;;;;9.67;56.76855;944.3889;;;;
2019/04/04 16:26:28;;;;;;;11;9.4;;;;;;;9.52;57.1416;944.3999;;;;
2019/04/04 16:28:53;;;;;;;11;9.5;;;;;;;9.54;57.81348;944.3801;;;;
2019/04/04 16:31:18;;;;;;;10.5;8.6;;;;;;;9.55;57.01855;944.4558;;;;
2019/04/04 16:33:45;;;;;;;9.8;7.7;;;;;;;9.44;57.9502;944.7131;;;;
2019/04/04 16:36:10;;;;;;;9.6;8.2;;;;;;;9.58;57.37891;944.7552;;;;
2019/04/04 16:38:35;;;;;;;105.9;75;;;;;;;9.6;56.75977;944.7292;;;;
2019/04/04 16:41:01;;;;;;;10.7;8.1;;;;;;;9.41;56.66504;944.7388;;;;
2019/04/04 16:43:25;;;;;;;8.2;7.3;;;;;;;9.35;56.58887;944.9384;;;;
2019/04/04 16:45:50;;;;;;;8.9;7.5;;;;;;;9.34;57.44043;944.9958;;;;
2019/04/04 16:48:16;;;;;;;8.6;7.5;;;;;;;9.25;57.13965;945.1435;;;;
2019/04/04 16:50:41;;;;;;;8.4;7;;;;;;;9.2;56.98438;945.3885;;;;
2019/04/04 16:53:06;;;;;;;8.3;7.1;;;;;;;9.13;57.87402;945.5517;;;;
2019/04/04 16:55:31;;;;;;;7.9;7.1;;;;;;;9.26;57.73047;945.5294;;;;
2019/04/04 16:57:56;;;;;;;9.3;7.3;;;;;;;9.25;57.83203;945.5825;;;;
2019/04/04 17:00:22;;;;;;;8;6.9;;;;;;;9.14;58.1748;945.5635;;;;
2019/04/04 17:02:47;;;;;;;7.8;7;;;;;;;9.09;58.07617;945.6209;;;;
2019/04/04 17:05:12;;;;;;;7.2;6.1;;;;;;;9.03;58.75977;945.5945;;;;
2019/04/04 17:07:38;;;;;;;7.7;6.2;;;;;;;8.94;59.08203;945.7256;;;;
2019/04/04 17:10:02;;;;;;;6.7;5.8;;;;;;;9.07;58.75488;945.8016;;;;
2019/04/04 17:12:28;;;;;;;6.8;5.7;;;;;;;9.1;59.57617;945.6964;;;;
2019/04/04 17:14:53;;;;;;;7.6;6.5;;;;;;;9.17;58.74414;945.7932;;;;
2019/04/04 17:17:19;;;;;;;6.9;6.1;;;;;;;9.25;58.27051;945.8711;;;;
2019/04/04 17:19:44;;;;;;;7.6;6.3;;;;;;;9.23;57.72559;945.8961;;;;
2019/04/04 17:22:09;;;;;;;7;6;;;;;;;9.17;58.375;945.8786;;;;
2019/04/04 17:24:35;;;;;;;6.9;5.8;;;;;;;9.14;58.14063;946.0358;;;;
2019/04/04 17:27:00;;;;;;;7.1;5.7;;;;;;;9.11;58.40137;945.938;;;;
2019/04/04 17:29:25;;;;;;;6.5;5.8;;;;;;;8.92;58.92969;946.0005;;;;
2019/04/04 17:31:50;;;;;;;7;5.9;;;;;;;8.76;59.54102;946.176;;;;
2019/04/04 17:34:15;;;;;;;6.5;5.6;;;;;;;8.93;58.79297;946.238;;;;
2019/04/04 17:36:40;;;;;;;6.2;5.6;;;;;;;8.8;58.79785;946.0931;;;;
2019/04/04 17:39:10;;;;;;;6.3;5.3;;;;;;;8.95;58.7373;945.9199;;;;
2019/04/04 17:41:35;;;;;;;7;5.2;;;;;;;9;58.49121;945.8409;;;;
2019/04/04 17:44:00;;;;;;;6.2;5;;;;;;;8.9;58.25879;945.9691;;;;
2019/04/04 17:46:25;;;;;;;5.6;4.6;;;;;;;8.79;58.10547;945.9881;;;;
2019/04/04 17:48:50;;;;;;;5.8;4.8;;;;;;;8.7;58.25293;945.9454;;;;
2019/04/04 17:51:15;;;;;;;5.9;4.6;;;;;;;8.65;58.19043;945.9553;;;;
2019/04/04 17:53:40;;;;;;;4.6;4.1;;;;;;;8.58;58.27246;945.9781;;;;
2019/04/04 17:56:05;;;;;;;5.8;4.7;;;;;;;8.54;58.49805;946.0508;;;;
2019/04/04 17:58:30;;;;;;;6.4;4.9;;;;;;;8.39;59.80078;946.02;;;;
2019/04/04 18:00:56;;;;;;;5.5;4.6;;;;;;;8.37;59.47559;945.9592;;;;
2019/04/04 18:03:22;;;;;;;6.2;4.9;;;;;;;8.28;59.84375;945.9022;;;;
2019/04/04 18:05:46;;;;;;;5.8;4.9;;;;;;;8.27;60.60059;945.8865;;;;
2019/04/04 18:08:13;;;;;;;6.5;5.1;;;;;;;8.09;60.81738;945.8425;;;;
2019/04/04 18:10:37;;;;;;;6.6;5.1;;;;;;;8.04;61.39648;945.9339;;;;
2019/04/04 18:13:02;;;;;;;6.8;5.1;;;;;;;8.11;61.12012;946.0259;;;;
2019/04/04 18:15:27;;;;;;;6.8;5.4;;;;;;;8.16;61.18457;946.3808;;;;
2019/04/04 18:17:52;;;;;;;6.5;5.5;;;;;;;8.2;61.62598;946.4864;;;;
2019/04/04 18:20:17;;;;;;;6.5;5.2;;;;;;;8.26;61.39355;946.4875;;;;
2019/04/04 18:22:44;;;;;;;6.7;6;;;;;;;8.17;61.55469;946.6808;;;;
2019/04/04 18:25:08;;;;;;;8.1;6.6;;;;;;;8.21;61.34082;946.9736;;;;
2019/04/04 18:27:33;;;;;;;7.5;6.2;;;;;;;8.16;61.48438;947.1072;;;;
2019/04/04 18:29:58;;;;;;;13.3;8.7;;;;;;;7.93;61.31348;947.1236;;;;
2019/04/04 18:32:23;;;;;;;13.5;9.8;;;;;;;8;61.94434;947.1147;;;;
2019/04/04 18:34:48;;;;;;;7.6;6.6;;;;;;;8.05;61.73047;947.207;;;;
2019/04/04 18:37:13;;;;;;;9.6;8;;;;;;;7.98;61.69922;947.3469;;;;
2019/04/04 18:39:39;;;;;;;8.5;6.9;;;;;;;8;61.91016;947.4205;;;;
2019/04/04 18:42:04;;;;;;;9.1;7.9;;;;;;;8.01;61.94434;947.3431;;;;
2019/04/04 18:44:29;;;;;;;10.3;8.5;;;;;;;7.81;62.64063;947.3134;;;;
2019/04/04 18:46:54;;;;;;;9.1;8.1;;;;;;;7.9;62.60742;947.0764;;;;
2019/04/04 18:49:19;;;;;;;9.8;8.5;;;;;;;7.74;63.26172;946.9526;;;;
2019/04/04 18:51:44;;;;;;;11.1;9.2;;;;;;;7.72;63.67285;947.1635;;;;
2019/04/04 18:54:09;;;;;;;11.2;9.1;;;;;;;7.76;63.5293;947.3622;;;;
2019/04/04 18:56:35;;;;;;;10.9;9.8;;;;;;;7.84;63.5293;947.3822;;;;
2019/04/04 18:59:01;;;;;;;11.7;10.5;;;;;;;7.91;63.09277;947.4361;;;;
2019/04/04 19:01:26;;;;;;;14.3;11.3;;;;;;;7.88;63.10938;947.483;;;;
2019/04/04 19:03:51;;;;;;;11.4;10.3;;;;;;;7.92;63.27832;947.588;;;;
2019/04/04 19:06:16;;;;;;;13.1;11.8;;;;;;;7.89;63.39844;947.6348;;;;
2019/04/04 19:08:41;;;;;;;19.6;16.9;;;;;;;7.69;64.12793;947.6305;;;;
2019/04/04 19:11:06;;;;;;;29.7;26.5;;;;;;;7.64;64.83203;947.6489;;;;
2019/04/04 19:13:31;;;;;;;16.8;15.1;;;;;;;7.42;65.69531;947.6167;;;;
2019/04/04 19:15:57;;;;;;;17.7;15.8;;;;;;;7.37;65.76758;947.6021;;;;
2019/04/04 19:18:22;;;;;;;16.6;14.9;;;;;;;7.43;65.97266;947.7303;;;;
2019/04/04 19:20:47;;;;;;;17.3;15.6;;;;;;;7.5;65.78809;947.7856;;;;
2019/04/04 19:23:12;;;;;;;17.1;15.4;;;;;;;7.48;65.82031;947.7111;;;;
2019/04/04 19:25:37;;;;;;;17.1;15.4;;;;;;;7.4;65.95703;947.6998;;;;
2019/04/04 19:28:02;;;;;;;15.8;14.3;;;;;;;7.54;65.51855;947.7464;;;;
2019/04/04 19:30:27;;;;;;;17.7;15.9;;;;;;;7.44;65.91797;947.7922;;;;
2019/04/04 19:32:52;;;;;;;18.2;16.3;;;;;;;7.4;66.28906;947.8065;;;;
2019/04/04 19:35:18;;;;;;;18.3;16.4;;;;;;;7.53;65.74805;947.8531;;;;
2019/04/04 19:37:43;;;;;;;18;16.1;;;;;;;7.58;65.30664;947.8555;;;;
2019/04/04 19:40:08;;;;;;;18.8;16.9;;;;;;;7.52;65.63184;947.8589;;;;
2019/04/04 19:42:33;;;;;;;17.9;16;;;;;;;7.58;65.35254;947.8222;;;;
2019/04/04 19:44:58;;;;;;;18.1;16.3;;;;;;;7.4;65.9209;947.8829;;;;
2019/04/04 19:47:23;;;;;;;17.1;15.4;;;;;;;7.52;65.52637;947.9696;;;;
2019/04/04 19:49:48;;;;;;;17.5;15.8;;;;;;;7.59;65.51465;948.0122;;;;
2019/04/04 19:52:13;;;;;;;16.9;15.2;;;;;;;7.7;64.83105;947.9979;;;;
2019/04/04 19:54:38;;;;;;;18.3;16.4;;;;;;;7.48;65.38184;947.8815;;;;
2019/04/04 19:57:03;;;;;;;17.9;16.1;;;;;;;7.53;66.43555;947.9089;;;;
2019/04/04 19:59:29;;;;;;;66.9;50.1;;;;;;;7.62;64.85254;948.0375;;;;
2019/04/04 20:01:54;;;;;;;18.5;16.7;;;;;;;7.62;64.63574;948.0287;;;;
2019/04/04 20:04:19;;;;;;;18;16.2;;;;;;;7.59;64.56152;947.9819;;;;
2019/04/04 20:06:44;;;;;;;20.1;18.1;;;;;;;7.45;65.24023;947.9106;;;;
2019/04/04 20:09:09;;;;;;;20.2;18.2;;;;;;;7.43;65.13379;947.8998;;;;
2019/04/04 20:11:34;;;;;;;20.9;18.8;;;;;;;7.31;65.99902;947.9324;;;;
2019/04/04 20:14:51;;;;;;;21;18.8;;;;;;;7.09;66.3125;947.9881;;;;
2019/04/04 20:17:16;;;;;;;21;19;;;;;;;7.22;66.19238;948.0153;;;;
2019/04/04 20:19:41;;;;;;;20.7;18.7;;;;;;;7.27;66.44336;947.9871;;;;
2019/04/04 20:22:07;;;;;;;20.3;18.3;;;;;;;7.31;65.74707;948.0342;;;;
2019/04/04 20:24:32;;;;;;;21.2;19.1;;;;;;;7.44;65.41113;948.0731;;;;
2019/04/04 20:26:57;;;;;;;23;20.5;;;;;;;7.52;64.98828;948.0793;;;;
2019/04/04 20:29:23;;;;;;;24.1;21.7;;;;;;;7.43;65.63965;948.1209;;;;
2019/04/04 20:31:48;;;;;;;24;21.7;;;;;;;7.53;65.21777;948.0999;;;;
2019/04/04 20:34:13;;;;;;;25.9;23.3;;;;;;;7.56;65.06152;948.2235;;;;
2019/04/04 20:36:38;;;;;;;25.4;22.9;;;;;;;7.6;65.04492;948.2953;;;;
2019/04/04 20:39:03;;;;;;;27.1;24.4;;;;;;;7.59;65.49219;948.3002;;;;
2019/04/04 20:41:28;;;;;;;27.4;24.7;;;;;;;7.51;65.5127;948.2936;;;;
2019/04/04 20:43:53;;;;;;;28;25.2;;;;;;;7.52;65.49414;948.3339;;;;
2019/04/04 20:46:18;;;;;;;28.9;25.9;;;;;;;7.5;65.375;948.2603;;;;
2019/04/04 20:48:43;;;;;;;28.9;25.9;;;;;;;7.47;65.61035;948.3201;;;;
2019/04/04 20:51:08;;;;;;;29.1;26.2;;;;;;;7.48;66.00293;948.3103;;;;
2019/04/04 20:53:33;;;;;;;28.7;25.8;;;;;;;7.53;65.4248;948.4094;;;;
2019/04/04 20:55:59;;;;;;;28.6;25.6;;;;;;;7.56;65.46484;948.3969;;;;
2019/04/04 20:58:24;;;;;;;29.8;26.7;;;;;;;7.58;65.93848;948.302;;;;
2019/04/04 21:00:49;;;;;;;30.5;27.4;;;;;;;7.53;65.9873;948.3163;;;;
2019/04/04 21:03:14;;;;;;;30.8;27.6;;;;;;;7.49;65.78711;948.283;;;;
2019/04/04 21:05:39;;;;;;;29.6;26.5;;;;;;;7.43;66.20215;948.3031;;;;
2019/04/04 21:08:04;;;;;;;29.5;26.4;;;;;;;7.35;66.61328;948.4281;;;;
2019/04/04 21:10:30;;;;;;;29.8;26.3;;;;;;;7.37;66.9043;948.5272;;;;
2019/04/04 21:12:55;;;;;;;30.9;27.6;;;;;;;7.37;66.69824;948.5742;;;;
2019/04/04 21:15:20;;;;;;;30.9;27.6;;;;;;;7.34;66.90039;948.616;;;;
2019/04/04 21:17:45;;;;;;;30.2;27;;;;;;;7.35;66.76563;948.5417;;;;
2019/04/04 21:20:10;;;;;;;31.6;28.3;;;;;;;7.33;66.80762;948.5014;;;;
2019/04/04 21:22:35;;;;;;;31.2;27.9;;;;;;;7.39;66.87305;948.5289;;;;
2019/04/04 21:25:01;;;;;;;30.9;27.6;;;;;;;7.35;67.26758;948.5299;;;;
2019/04/04 21:27:26;;;;;;;29.8;26.7;;;;;;;7.35;67.52246;948.5466;;;;
2019/04/04 21:29:51;;;;;;;80.8;58.3;;;;;;;7.46;66.67773;948.6305;;;;
2019/04/04 21:32:16;;;;;;;29.2;26.1;;;;;;;7.64;66.29102;948.5872;;;;
2019/04/04 21:34:41;;;;;;;26.3;23.6;;;;;;;7.72;65.71875;948.6661;;;;
2019/04/04 21:37:06;;;;;;;24.8;22.3;;;;;;;7.57;65.99609;948.6545;;;;
2019/04/04 21:39:32;;;;;;;23.1;20.8;;;;;;;7.63;65.87793;948.7106;;;;
2019/04/04 21:41:57;;;;;;;23;20.6;;;;;;;7.62;66.31348;948.6566;;;;
2019/04/04 21:44:22;;;;;;;22.2;20;;;;;;;7.65;66.47852;948.7381;;;;
2019/04/04 21:46:48;;;;;;;20.7;18.6;;;;;;;7.63;66.15332;948.6724;;;;
2019/04/04 21:49:13;;;;;;;22.4;20.1;;;;;;;7.55;66.49707;948.6319;;;;
2019/04/04 21:51:38;;;;;;;21.6;19.5;;;;;;;7.62;66.04883;948.7672;;;;
2019/04/04 21:54:03;;;;;;;22.1;19.9;;;;;;;7.5;66.87988;948.7786;;;;
2019/04/04 21:56:28;;;;;;;21.5;19.4;;;;;;;7.44;66.87012;948.832;;;;
2019/04/04 21:58:54;;;;;;;21.9;19.7;;;;;;;7.46;66.83789;948.9359;;;;
2019/04/04 22:01:19;;;;;;;20.4;18.4;;;;;;;7.49;66.74023;948.9108;;;;
2019/04/04 22:03:44;;;;;;;20.7;18.5;;;;;;;7.43;67.17871;948.9817;;;;